sensor_id;sensor_type;location;lat;lon;timestamp;P1;durP1;ratioP1;P2;durP2;ratioP2
61806;SDS011;47726;52.766;6.606;2023-03-24T00:00:45;10.00;;;4.55;;
61806;SDS011;47726;52.766;6.606;2023-03-24T00:03:11;8.82;;;4.55;;
61806;SDS011;47726;52.766;6.606;2023-03-24T00:05:40;10.80;;;4.57;;
61806;SDS011;47726;52.766;6.606;2023-03-24T00:08:08;10.45;;;4.35;;
61806;SDS011;47726;52.766;6.606;2023-03-24T00:10:34;9.57;;;4.50;;
61806;SDS011;47726;52.766;6.606;2023-03-24T00:13:01;11.60;;;4.15;;
61806;SDS011;47726;52.766;6.606;2023-03-24T00:15:27;12.32;;;4.47;;
61806;SDS011;47726;52.766;6.606;2023-03-24T00:17:53;8.85;;;4.40;;
61806;SDS011;47726;52.766;6.606;2023-03-24T00:20:22;9.85;;;4.45;;
61806;SDS011;47726;52.766;6.606;2023-03-24T00:22:53;9.32;;;4.65;;
61806;SDS011;47726;52.766;6.606;2023-03-24T00:25:23;11.75;;;4.88;;
61806;SDS011;47726;52.766;6.606;2023-03-24T00:27:57;9.80;;;4.18;;
61806;SDS011;47726;52.766;6.606;2023-03-24T00:30:23;9.75;;;4.47;;
61806;SDS011;47726;52.766;6.606;2023-03-24T00:32:50;9.80;;;4.25;;
61806;SDS011;47726;52.766;6.606;2023-03-24T00:35:16;7.35;;;3.88;;
61806;SDS011;47726;52.766;6.606;2023-03-24T00:37:43;6.72;;;4.05;;
61806;SDS011;47726;52.766;6.606;2023-03-24T00:40:18;11.25;;;4.47;;
61806;SDS011;47726;52.766;6.606;2023-03-24T00:42:45;9.32;;;4.47;;
61806;SDS011;47726;52.766;6.606;2023-03-24T00:45:14;8.07;;;4.07;;
61806;SDS011;47726;52.766;6.606;2023-03-24T00:47:46;11.70;;;4.25;;
61806;SDS011;47726;52.766;6.606;2023-03-24T00:50:14;7.82;;;4.22;;
61806;SDS011;47726;52.766;6.606;2023-03-24T00:52:41;10.60;;;4.03;;
61806;SDS011;47726;52.766;6.606;2023-03-24T00:55:12;10.77;;;4.10;;
61806;SDS011;47726;52.766;6.606;2023-03-24T00:57:40;8.57;;;4.13;;
61806;SDS011;47726;52.766;6.606;2023-03-24T01:00:13;7.57;;;4.05;;
61806;SDS011;47726;52.766;6.606;2023-03-24T01:02:44;11.15;;;4.10;;
61806;SDS011;47726;52.766;6.606;2023-03-24T01:05:11;9.48;;;4.50;;
61806;SDS011;47726;52.766;6.606;2023-03-24T01:07:39;8.20;;;4.00;;
61806;SDS011;47726;52.766;6.606;2023-03-24T01:10:06;9.40;;;4.15;;
61806;SDS011;47726;52.766;6.606;2023-03-24T01:12:40;7.35;;;4.13;;
61806;SDS011;47726;52.766;6.606;2023-03-24T01:15:08;10.10;;;4.20;;
61806;SDS011;47726;52.766;6.606;2023-03-24T01:17:38;9.52;;;4.40;;
61806;SDS011;47726;52.766;6.606;2023-03-24T01:20:04;10.15;;;4.00;;
61806;SDS011;47726;52.766;6.606;2023-03-24T01:22:35;7.60;;;3.85;;
61806;SDS011;47726;52.766;6.606;2023-03-24T01:25:04;8.15;;;4.18;;
61806;SDS011;47726;52.766;6.606;2023-03-24T01:27:31;11.10;;;4.10;;
61806;SDS011;47726;52.766;6.606;2023-03-24T01:29:58;7.40;;;3.95;;
61806;SDS011;47726;52.766;6.606;2023-03-24T01:32:24;7.93;;;4.13;;
61806;SDS011;47726;52.766;6.606;2023-03-24T01:34:50;11.40;;;4.47;;
61806;SDS011;47726;52.766;6.606;2023-03-24T01:37:15;7.80;;;3.95;;
61806;SDS011;47726;52.766;6.606;2023-03-24T01:39:41;7.45;;;3.80;;
61806;SDS011;47726;52.766;6.606;2023-03-24T01:42:09;6.80;;;3.60;;
61806;SDS011;47726;52.766;6.606;2023-03-24T01:44:41;9.80;;;4.40;;
61806;SDS011;47726;52.766;6.606;2023-03-24T01:47:07;8.70;;;3.97;;
61806;SDS011;47726;52.766;6.606;2023-03-24T01:49:37;6.85;;;3.67;;
61806;SDS011;47726;52.766;6.606;2023-03-24T01:52:16;9.88;;;3.92;;
61806;SDS011;47726;52.766;6.606;2023-03-24T01:54:46;6.55;;;3.85;;
61806;SDS011;47726;52.766;6.606;2023-03-24T01:57:19;7.03;;;3.92;;
61806;SDS011;47726;52.766;6.606;2023-03-24T01:59:52;7.60;;;4.40;;
61806;SDS011;47726;52.766;6.606;2023-03-24T02:02:20;10.13;;;4.20;;
61806;SDS011;47726;52.766;6.606;2023-03-24T02:04:53;6.18;;;3.97;;
61806;SDS011;47726;52.766;6.606;2023-03-24T02:07:37;6.97;;;4.07;;
61806;SDS011;47726;52.766;6.606;2023-03-24T02:10:15;6.90;;;4.00;;
61806;SDS011;47726;52.766;6.606;2023-03-24T02:12:42;7.95;;;4.10;;
61806;SDS011;47726;52.766;6.606;2023-03-24T02:15:09;7.55;;;4.18;;
61806;SDS011;47726;52.766;6.606;2023-03-24T02:17:54;8.82;;;4.35;;
61806;SDS011;47726;52.766;6.606;2023-03-24T02:23:43;6.97;;;4.35;;
61806;SDS011;47726;52.766;6.606;2023-03-24T02:42:30;6.22;;;4.00;;
61806;SDS011;47726;52.766;6.606;2023-03-24T02:50:50;7.97;;;4.22;;
61806;SDS011;47726;52.766;6.606;2023-03-24T02:53:42;7.03;;;4.25;;
61806;SDS011;47726;52.766;6.606;2023-03-24T02:56:12;8.57;;;4.55;;
61806;SDS011;47726;52.766;6.606;2023-03-24T02:59:20;6.57;;;4.60;;
61806;SDS011;47726;52.766;6.606;2023-03-24T03:01:46;6.35;;;4.30;;
61806;SDS011;47726;52.766;6.606;2023-03-24T03:04:18;9.30;;;4.45;;
61806;SDS011;47726;52.766;6.606;2023-03-24T03:06:49;6.78;;;4.50;;
61806;SDS011;47726;52.766;6.606;2023-03-24T03:09:18;7.63;;;4.53;;
61806;SDS011;47726;52.766;6.606;2023-03-24T03:11:47;5.85;;;4.40;;
61806;SDS011;47726;52.766;6.606;2023-03-24T03:14:33;8.13;;;4.32;;
61806;SDS011;47726;52.766;6.606;2023-03-24T03:17:16;6.07;;;4.22;;
61806;SDS011;47726;52.766;6.606;2023-03-24T03:19:50;7.82;;;4.28;;
61806;SDS011;47726;52.766;6.606;2023-03-24T03:22:21;7.70;;;4.30;;
61806;SDS011;47726;52.766;6.606;2023-03-24T03:24:54;7.57;;;4.30;;
61806;SDS011;47726;52.766;6.606;2023-03-24T03:27:26;6.25;;;4.50;;
61806;SDS011;47726;52.766;6.606;2023-03-24T03:29:56;8.60;;;4.82;;
61806;SDS011;47726;52.766;6.606;2023-03-24T03:32:27;6.05;;;4.40;;
61806;SDS011;47726;52.766;6.606;2023-03-24T03:35:06;7.57;;;4.25;;
61806;SDS011;47726;52.766;6.606;2023-03-24T03:37:44;8.52;;;4.47;;
61806;SDS011;47726;52.766;6.606;2023-03-24T03:40:13;7.50;;;4.40;;
61806;SDS011;47726;52.766;6.606;2023-03-24T03:42:49;6.03;;;4.20;;
61806;SDS011;47726;52.766;6.606;2023-03-24T03:45:15;7.55;;;4.32;;
61806;SDS011;47726;52.766;6.606;2023-03-24T03:47:41;7.65;;;4.82;;
61806;SDS011;47726;52.766;6.606;2023-03-24T03:50:07;6.57;;;4.10;;
61806;SDS011;47726;52.766;6.606;2023-03-24T03:52:34;5.68;;;3.72;;
61806;SDS011;47726;52.766;6.606;2023-03-24T03:55:03;4.65;;;3.25;;
61806;SDS011;47726;52.766;6.606;2023-03-24T03:57:29;5.93;;;3.75;;
61806;SDS011;47726;52.766;6.606;2023-03-24T03:59:56;5.35;;;3.05;;
61806;SDS011;47726;52.766;6.606;2023-03-24T04:02:52;5.28;;;2.72;;
61806;SDS011;47726;52.766;6.606;2023-03-24T04:11:22;7.30;;;2.42;;
61806;SDS011;47726;52.766;6.606;2023-03-24T04:20:22;8.52;;;2.47;;
61806;SDS011;47726;52.766;6.606;2023-03-24T04:23:11;6.97;;;2.60;;
61806;SDS011;47726;52.766;6.606;2023-03-24T04:25:58;6.57;;;2.45;;
61806;SDS011;47726;52.766;6.606;2023-03-24T04:34:36;8.15;;;2.53;;
61806;SDS011;47726;52.766;6.606;2023-03-24T04:37:13;8.98;;;2.95;;
61806;SDS011;47726;52.766;6.606;2023-03-24T04:39:43;7.65;;;2.40;;
61806;SDS011;47726;52.766;6.606;2023-03-24T04:42:13;7.75;;;2.50;;
61806;SDS011;47726;52.766;6.606;2023-03-24T04:44:44;8.02;;;2.30;;
61806;SDS011;47726;52.766;6.606;2023-03-24T04:47:10;9.10;;;2.70;;
61806;SDS011;47726;52.766;6.606;2023-03-24T04:49:37;7.97;;;2.60;;
61806;SDS011;47726;52.766;6.606;2023-03-24T04:52:04;10.15;;;2.70;;
61806;SDS011;47726;52.766;6.606;2023-03-24T04:54:30;8.18;;;2.60;;
61806;SDS011;47726;52.766;6.606;2023-03-24T04:56:57;14.30;;;2.97;;
61806;SDS011;47726;52.766;6.606;2023-03-24T04:59:25;10.48;;;2.90;;
61806;SDS011;47726;52.766;6.606;2023-03-24T05:01:51;9.48;;;2.85;;
61806;SDS011;47726;52.766;6.606;2023-03-24T05:04:18;8.52;;;2.83;;
61806;SDS011;47726;52.766;6.606;2023-03-24T05:06:45;7.93;;;2.75;;
61806;SDS011;47726;52.766;6.606;2023-03-24T05:09:14;12.30;;;3.10;;
61806;SDS011;47726;52.766;6.606;2023-03-24T05:11:45;10.75;;;3.20;;
61806;SDS011;47726;52.766;6.606;2023-03-24T05:14:11;11.05;;;3.55;;
61806;SDS011;47726;52.766;6.606;2023-03-24T05:16:37;12.07;;;3.63;;
61806;SDS011;47726;52.766;6.606;2023-03-24T05:19:02;10.98;;;2.88;;
61806;SDS011;47726;52.766;6.606;2023-03-24T05:21:28;10.60;;;3.03;;
61806;SDS011;47726;52.766;6.606;2023-03-24T05:23:54;13.60;;;3.45;;
61806;SDS011;47726;52.766;6.606;2023-03-24T05:26:20;11.77;;;3.22;;
61806;SDS011;47726;52.766;6.606;2023-03-24T05:28:46;11.52;;;3.17;;
61806;SDS011;47726;52.766;6.606;2023-03-24T05:31:11;12.85;;;3.35;;
61806;SDS011;47726;52.766;6.606;2023-03-24T05:33:37;9.38;;;2.85;;
61806;SDS011;47726;52.766;6.606;2023-03-24T05:36:03;10.77;;;2.85;;
61806;SDS011;47726;52.766;6.606;2023-03-24T05:38:29;11.55;;;2.80;;
61806;SDS011;47726;52.766;6.606;2023-03-24T05:40:58;12.35;;;3.08;;
61806;SDS011;47726;52.766;6.606;2023-03-24T05:43:25;11.10;;;2.85;;
61806;SDS011;47726;52.766;6.606;2023-03-24T05:45:51;8.88;;;2.72;;
61806;SDS011;47726;52.766;6.606;2023-03-24T05:48:17;8.90;;;2.92;;
61806;SDS011;47726;52.766;6.606;2023-03-24T05:50:43;11.43;;;2.72;;
61806;SDS011;47726;52.766;6.606;2023-03-24T05:53:09;9.40;;;2.55;;
61806;SDS011;47726;52.766;6.606;2023-03-24T05:55:35;9.63;;;2.67;;
61806;SDS011;47726;52.766;6.606;2023-03-24T05:58:00;13.05;;;2.80;;
61806;SDS011;47726;52.766;6.606;2023-03-24T06:00:30;12.75;;;2.80;;
61806;SDS011;47726;52.766;6.606;2023-03-24T06:02:57;13.48;;;2.83;;
61806;SDS011;47726;52.766;6.606;2023-03-24T06:05:23;9.30;;;2.53;;
61806;SDS011;47726;52.766;6.606;2023-03-24T06:07:50;12.57;;;3.05;;
61806;SDS011;47726;52.766;6.606;2023-03-24T06:10:22;12.57;;;2.95;;
61806;SDS011;47726;52.766;6.606;2023-03-24T06:12:50;9.65;;;2.92;;
61806;SDS011;47726;52.766;6.606;2023-03-24T06:15:16;9.07;;;2.42;;
61806;SDS011;47726;52.766;6.606;2023-03-24T06:17:42;10.18;;;2.83;;
61806;SDS011;47726;52.766;6.606;2023-03-24T06:20:09;10.02;;;2.80;;
61806;SDS011;47726;52.766;6.606;2023-03-24T06:22:39;11.52;;;3.38;;
61806;SDS011;47726;52.766;6.606;2023-03-24T06:25:06;11.43;;;3.00;;
61806;SDS011;47726;52.766;6.606;2023-03-24T06:27:33;12.68;;;3.25;;
61806;SDS011;47726;52.766;6.606;2023-03-24T06:30:00;10.45;;;3.17;;
61806;SDS011;47726;52.766;6.606;2023-03-24T06:32:26;13.57;;;3.20;;
61806;SDS011;47726;52.766;6.606;2023-03-24T06:34:52;13.82;;;3.17;;
61806;SDS011;47726;52.766;6.606;2023-03-24T06:37:18;11.52;;;3.28;;
61806;SDS011;47726;52.766;6.606;2023-03-24T06:39:45;12.82;;;3.40;;
61806;SDS011;47726;52.766;6.606;2023-03-24T06:42:11;10.95;;;3.10;;
61806;SDS011;47726;52.766;6.606;2023-03-24T06:44:37;12.95;;;2.90;;
61806;SDS011;47726;52.766;6.606;2023-03-24T06:47:03;12.57;;;3.25;;
61806;SDS011;47726;52.766;6.606;2023-03-24T06:49:28;15.52;;;3.30;;
61806;SDS011;47726;52.766;6.606;2023-03-24T06:51:54;17.27;;;3.60;;
61806;SDS011;47726;52.766;6.606;2023-03-24T06:54:20;11.65;;;3.20;;
61806;SDS011;47726;52.766;6.606;2023-03-24T06:56:46;15.20;;;3.20;;
61806;SDS011;47726;52.766;6.606;2023-03-24T06:59:12;12.88;;;3.15;;
61806;SDS011;47726;52.766;6.606;2023-03-24T07:01:37;14.45;;;3.20;;
61806;SDS011;47726;52.766;6.606;2023-03-24T07:04:03;15.48;;;3.40;;
61806;SDS011;47726;52.766;6.606;2023-03-24T07:06:30;14.43;;;3.67;;
61806;SDS011;47726;52.766;6.606;2023-03-24T07:08:56;15.30;;;3.60;;
61806;SDS011;47726;52.766;6.606;2023-03-24T07:11:21;14.38;;;3.38;;
61806;SDS011;47726;52.766;6.606;2023-03-24T07:13:47;18.85;;;3.58;;
61806;SDS011;47726;52.766;6.606;2023-03-24T07:16:13;17.75;;;3.40;;
61806;SDS011;47726;52.766;6.606;2023-03-24T07:18:39;14.80;;;3.42;;
61806;SDS011;47726;52.766;6.606;2023-03-24T07:21:05;19.77;;;3.40;;
61806;SDS011;47726;52.766;6.606;2023-03-24T07:23:31;13.77;;;3.50;;
61806;SDS011;47726;52.766;6.606;2023-03-24T07:25:57;19.60;;;3.50;;
61806;SDS011;47726;52.766;6.606;2023-03-24T07:28:23;15.55;;;3.58;;
61806;SDS011;47726;52.766;6.606;2023-03-24T07:30:49;14.43;;;3.88;;
61806;SDS011;47726;52.766;6.606;2023-03-24T07:33:15;17.17;;;3.70;;
61806;SDS011;47726;52.766;6.606;2023-03-24T07:35:41;14.25;;;3.60;;
61806;SDS011;47726;52.766;6.606;2023-03-24T07:38:07;23.88;;;4.15;;
61806;SDS011;47726;52.766;6.606;2023-03-24T07:40:34;19.38;;;3.95;;
61806;SDS011;47726;52.766;6.606;2023-03-24T07:43:00;19.85;;;4.03;;
61806;SDS011;47726;52.766;6.606;2023-03-24T07:45:29;20.98;;;4.35;;
61806;SDS011;47726;52.766;6.606;2023-03-24T07:47:55;19.60;;;4.30;;
61806;SDS011;47726;52.766;6.606;2023-03-24T07:50:25;21.17;;;4.22;;
61806;SDS011;47726;52.766;6.606;2023-03-24T07:52:52;18.63;;;4.20;;
61806;SDS011;47726;52.766;6.606;2023-03-24T07:55:17;18.80;;;4.32;;
61806;SDS011;47726;52.766;6.606;2023-03-24T07:57:46;19.20;;;3.72;;
61806;SDS011;47726;52.766;6.606;2023-03-24T08:00:13;20.92;;;4.28;;
61806;SDS011;47726;52.766;6.606;2023-03-24T08:02:42;19.88;;;4.25;;
61806;SDS011;47726;52.766;6.606;2023-03-24T08:05:09;21.90;;;4.45;;
61806;SDS011;47726;52.766;6.606;2023-03-24T08:07:38;19.85;;;3.88;;
61806;SDS011;47726;52.766;6.606;2023-03-24T08:10:07;18.85;;;3.95;;
61806;SDS011;47726;52.766;6.606;2023-03-24T08:12:36;26.25;;;4.00;;
61806;SDS011;47726;52.766;6.606;2023-03-24T08:15:02;24.70;;;4.25;;
61806;SDS011;47726;52.766;6.606;2023-03-24T08:17:28;21.70;;;4.15;;
61806;SDS011;47726;52.766;6.606;2023-03-24T08:19:53;20.73;;;4.35;;
61806;SDS011;47726;52.766;6.606;2023-03-24T08:22:20;23.77;;;4.65;;
61806;SDS011;47726;52.766;6.606;2023-03-24T08:24:46;19.88;;;4.30;;
61806;SDS011;47726;52.766;6.606;2023-03-24T08:27:11;18.92;;;4.07;;
61806;SDS011;47726;52.766;6.606;2023-03-24T08:29:37;19.25;;;4.13;;
61806;SDS011;47726;52.766;6.606;2023-03-24T08:32:03;21.15;;;4.32;;
61806;SDS011;47726;52.766;6.606;2023-03-24T08:34:28;23.55;;;4.22;;
61806;SDS011;47726;52.766;6.606;2023-03-24T08:36:54;19.73;;;4.00;;
61806;SDS011;47726;52.766;6.606;2023-03-24T08:39:20;20.60;;;3.95;;
61806;SDS011;47726;52.766;6.606;2023-03-24T08:41:45;18.23;;;3.83;;
61806;SDS011;47726;52.766;6.606;2023-03-24T08:44:14;21.13;;;4.18;;
61806;SDS011;47726;52.766;6.606;2023-03-24T08:46:40;18.55;;;3.92;;
61806;SDS011;47726;52.766;6.606;2023-03-24T08:49:06;14.85;;;3.30;;
61806;SDS011;47726;52.766;6.606;2023-03-24T08:51:37;18.42;;;3.75;;
61806;SDS011;47726;52.766;6.606;2023-03-24T08:54:03;19.38;;;3.45;;
61806;SDS011;47726;52.766;6.606;2023-03-24T08:56:29;20.65;;;4.20;;
61806;SDS011;47726;52.766;6.606;2023-03-24T08:58:55;17.85;;;3.67;;
61806;SDS011;47726;52.766;6.606;2023-03-24T09:01:21;20.45;;;3.95;;
61806;SDS011;47726;52.766;6.606;2023-03-24T09:03:47;19.05;;;3.80;;
61806;SDS011;47726;52.766;6.606;2023-03-24T09:06:13;17.08;;;3.63;;
61806;SDS011;47726;52.766;6.606;2023-03-24T09:08:39;16.30;;;3.58;;
61806;SDS011;47726;52.766;6.606;2023-03-24T09:11:06;15.02;;;3.17;;
61806;SDS011;47726;52.766;6.606;2023-03-24T09:13:37;18.05;;;3.53;;
61806;SDS011;47726;52.766;6.606;2023-03-24T09:16:03;17.38;;;3.47;;
61806;SDS011;47726;52.766;6.606;2023-03-24T09:18:28;18.08;;;3.58;;
61806;SDS011;47726;52.766;6.606;2023-03-24T09:20:54;14.60;;;3.70;;
61806;SDS011;47726;52.766;6.606;2023-03-24T09:23:20;16.20;;;3.40;;
61806;SDS011;47726;52.766;6.606;2023-03-24T09:25:49;19.52;;;3.60;;
61806;SDS011;47726;52.766;6.606;2023-03-24T09:28:17;17.45;;;3.83;;
61806;SDS011;47726;52.766;6.606;2023-03-24T09:30:43;16.27;;;3.70;;
61806;SDS011;47726;52.766;6.606;2023-03-24T09:33:08;15.27;;;3.20;;
61806;SDS011;47726;52.766;6.606;2023-03-24T09:35:34;18.70;;;3.40;;
61806;SDS011;47726;52.766;6.606;2023-03-24T09:38:00;17.15;;;3.65;;
61806;SDS011;47726;52.766;6.606;2023-03-24T09:40:27;14.10;;;3.45;;
61806;SDS011;47726;52.766;6.606;2023-03-24T09:43:16;15.45;;;3.65;;
61806;SDS011;47726;52.766;6.606;2023-03-24T09:45:56;16.58;;;3.60;;
61806;SDS011;47726;52.766;6.606;2023-03-24T09:51:06;18.55;;;3.22;;
61806;SDS011;47726;52.766;6.606;2023-03-24T09:56:34;12.98;;;2.85;;
61806;SDS011;47726;52.766;6.606;2023-03-24T10:01:44;14.52;;;3.40;;
61806;SDS011;47726;52.766;6.606;2023-03-24T10:04:15;16.17;;;3.22;;
61806;SDS011;47726;52.766;6.606;2023-03-24T10:06:43;20.73;;;3.83;;
61806;SDS011;47726;52.766;6.606;2023-03-24T10:17:37;17.25;;;3.10;;
61806;SDS011;47726;52.766;6.606;2023-03-24T10:20:23;16.52;;;3.20;;
61806;SDS011;47726;52.766;6.606;2023-03-24T10:28:10;14.55;;;3.40;;
61806;SDS011;47726;52.766;6.606;2023-03-24T10:30:44;17.48;;;3.10;;
61806;SDS011;47726;52.766;6.606;2023-03-24T10:33:11;14.15;;;3.17;;
61806;SDS011;47726;52.766;6.606;2023-03-24T10:35:45;17.65;;;3.40;;
61806;SDS011;47726;52.766;6.606;2023-03-24T10:38:30;14.77;;;3.20;;
61806;SDS011;47726;52.766;6.606;2023-03-24T10:40:56;14.32;;;3.08;;
61806;SDS011;47726;52.766;6.606;2023-03-24T10:43:22;16.02;;;3.50;;
61806;SDS011;47726;52.766;6.606;2023-03-24T10:45:51;13.38;;;3.25;;
61806;SDS011;47726;52.766;6.606;2023-03-24T10:51:14;12.73;;;3.10;;
61806;SDS011;47726;52.766;6.606;2023-03-24T10:53:45;17.15;;;3.17;;
61806;SDS011;47726;52.766;6.606;2023-03-24T10:56:36;11.35;;;2.83;;
61806;SDS011;47726;52.766;6.606;2023-03-24T10:59:04;14.32;;;3.00;;
61806;SDS011;47726;52.766;6.606;2023-03-24T11:01:42;13.93;;;2.88;;
61806;SDS011;47726;52.766;6.606;2023-03-24T11:04:08;15.02;;;3.08;;
61806;SDS011;47726;52.766;6.606;2023-03-24T11:06:39;13.10;;;2.60;;
61806;SDS011;47726;52.766;6.606;2023-03-24T11:09:37;13.63;;;2.80;;
61806;SDS011;47726;52.766;6.606;2023-03-24T11:12:20;12.88;;;2.88;;
61806;SDS011;47726;52.766;6.606;2023-03-24T11:14:47;13.23;;;2.80;;
61806;SDS011;47726;52.766;6.606;2023-03-24T11:17:13;13.20;;;2.65;;
61806;SDS011;47726;52.766;6.606;2023-03-24T11:19:49;13.38;;;2.80;;
61806;SDS011;47726;52.766;6.606;2023-03-24T11:22:16;10.02;;;2.50;;
61806;SDS011;47726;52.766;6.606;2023-03-24T11:24:42;13.23;;;2.58;;
61806;SDS011;47726;52.766;6.606;2023-03-24T11:27:12;14.60;;;2.88;;
61806;SDS011;47726;52.766;6.606;2023-03-24T11:29:40;13.45;;;2.92;;
61806;SDS011;47726;52.766;6.606;2023-03-24T11:32:15;10.98;;;2.63;;
61806;SDS011;47726;52.766;6.606;2023-03-24T11:34:47;13.00;;;3.03;;
61806;SDS011;47726;52.766;6.606;2023-03-24T11:37:21;10.68;;;2.58;;
61806;SDS011;47726;52.766;6.606;2023-03-24T11:40:31;13.40;;;2.70;;
61806;SDS011;47726;52.766;6.606;2023-03-24T11:42:47;14.43;;;2.67;;
61806;SDS011;47726;52.766;6.606;2023-03-24T11:45:26;11.38;;;2.97;;
61806;SDS011;47726;52.766;6.606;2023-03-24T11:48:09;12.60;;;2.85;;
61806;SDS011;47726;52.766;6.606;2023-03-24T11:50:52;10.55;;;2.85;;
61806;SDS011;47726;52.766;6.606;2023-03-24T11:53:20;12.88;;;2.40;;
61806;SDS011;47726;52.766;6.606;2023-03-24T11:56:12;12.13;;;2.50;;
61806;SDS011;47726;52.766;6.606;2023-03-24T11:58:57;11.57;;;2.53;;
61806;SDS011;47726;52.766;6.606;2023-03-24T12:06:55;14.23;;;3.08;;
61806;SDS011;47726;52.766;6.606;2023-03-24T12:09:45;13.68;;;3.25;;
61806;SDS011;47726;52.766;6.606;2023-03-24T12:12:50;14.40;;;3.13;;
61806;SDS011;47726;52.766;6.606;2023-03-24T12:15:47;12.35;;;2.75;;
61806;SDS011;47726;52.766;6.606;2023-03-24T12:20:53;10.52;;;2.88;;
61806;SDS011;47726;52.766;6.606;2023-03-24T12:26:25;12.65;;;2.45;;
61806;SDS011;47726;52.766;6.606;2023-03-24T12:28:54;12.18;;;2.60;;
61806;SDS011;47726;52.766;6.606;2023-03-24T12:32:02;12.55;;;2.80;;
61806;SDS011;47726;52.766;6.606;2023-03-24T12:37:30;9.63;;;2.63;;
61806;SDS011;47726;52.766;6.606;2023-03-24T12:42:39;10.50;;;2.50;;
61806;SDS011;47726;52.766;6.606;2023-03-24T12:45:19;11.32;;;2.42;;
61806;SDS011;47726;52.766;6.606;2023-03-24T12:48:15;12.23;;;2.50;;
61806;SDS011;47726;52.766;6.606;2023-03-24T12:56:15;13.43;;;2.72;;
61806;SDS011;47726;52.766;6.606;2023-03-24T12:58:48;14.02;;;2.80;;
61806;SDS011;47726;52.766;6.606;2023-03-24T13:01:32;14.52;;;3.10;;
61806;SDS011;47726;52.766;6.606;2023-03-24T13:04:11;14.40;;;2.70;;
61806;SDS011;47726;52.766;6.606;2023-03-24T13:06:55;13.15;;;2.92;;
61806;SDS011;47726;52.766;6.606;2023-03-24T13:09:28;13.25;;;2.92;;
61806;SDS011;47726;52.766;6.606;2023-03-24T13:12:20;14.70;;;3.38;;
61806;SDS011;47726;52.766;6.606;2023-03-24T13:15:12;15.05;;;2.78;;
61806;SDS011;47726;52.766;6.606;2023-03-24T13:17:49;11.77;;;2.95;;
61806;SDS011;47726;52.766;6.606;2023-03-24T13:20:23;14.63;;;2.92;;
61806;SDS011;47726;52.766;6.606;2023-03-24T13:22:52;10.75;;;3.00;;
61806;SDS011;47726;52.766;6.606;2023-03-24T13:25:28;16.05;;;3.10;;
61806;SDS011;47726;52.766;6.606;2023-03-24T13:27:57;13.40;;;2.90;;
61806;SDS011;47726;52.766;6.606;2023-03-24T13:30:35;13.07;;;3.20;;
61806;SDS011;47726;52.766;6.606;2023-03-24T13:33:19;11.40;;;2.80;;
61806;SDS011;47726;52.766;6.606;2023-03-24T13:41:04;12.98;;;3.00;;
61806;SDS011;47726;52.766;6.606;2023-03-24T13:43:31;14.40;;;2.85;;
61806;SDS011;47726;52.766;6.606;2023-03-24T13:46:02;13.10;;;2.83;;
61806;SDS011;47726;52.766;6.606;2023-03-24T13:53:43;11.80;;;2.70;;
61806;SDS011;47726;52.766;6.606;2023-03-24T13:56:26;11.27;;;2.55;;
61806;SDS011;47726;52.766;6.606;2023-03-24T14:01:31;10.93;;;2.70;;
61806;SDS011;47726;52.766;6.606;2023-03-24T14:06:43;12.77;;;3.10;;
61806;SDS011;47726;52.766;6.606;2023-03-24T14:09:23;10.80;;;2.90;;
61806;SDS011;47726;52.766;6.606;2023-03-24T14:14:24;10.75;;;2.55;;
61806;SDS011;47726;52.766;6.606;2023-03-24T14:20:12;9.07;;;2.33;;
61806;SDS011;47726;52.766;6.606;2023-03-24T14:22:34;8.00;;;2.20;;
61806;SDS011;47726;52.766;6.606;2023-03-24T14:25:16;11.85;;;2.65;;
61806;SDS011;47726;52.766;6.606;2023-03-24T14:27:54;10.07;;;2.40;;
61806;SDS011;47726;52.766;6.606;2023-03-24T14:30:57;9.00;;;2.10;;
61806;SDS011;47726;52.766;6.606;2023-03-24T14:33:26;10.00;;;2.28;;
61806;SDS011;47726;52.766;6.606;2023-03-24T14:36:03;8.80;;;2.75;;
61806;SDS011;47726;52.766;6.606;2023-03-24T14:38:34;12.13;;;2.67;;
61806;SDS011;47726;52.766;6.606;2023-03-24T14:41:05;14.45;;;2.88;;
61806;SDS011;47726;52.766;6.606;2023-03-24T14:51:43;9.20;;;2.67;;
61806;SDS011;47726;52.766;6.606;2023-03-24T14:54:33;11.35;;;2.60;;
61806;SDS011;47726;52.766;6.606;2023-03-24T14:57:27;13.57;;;2.65;;
61806;SDS011;47726;52.766;6.606;2023-03-24T15:02:44;12.65;;;2.67;;
61806;SDS011;47726;52.766;6.606;2023-03-24T15:05:27;12.93;;;2.55;;
61806;SDS011;47726;52.766;6.606;2023-03-24T15:10:52;12.10;;;2.63;;
61806;SDS011;47726;52.766;6.606;2023-03-24T15:13:42;12.27;;;2.63;;
61806;SDS011;47726;52.766;6.606;2023-03-24T15:18:35;14.20;;;2.85;;
61806;SDS011;47726;52.766;6.606;2023-03-24T15:21:32;10.73;;;2.60;;
61806;SDS011;47726;52.766;6.606;2023-03-24T15:23:58;8.18;;;2.53;;
61806;SDS011;47726;52.766;6.606;2023-03-24T15:26:26;13.35;;;2.90;;
61806;SDS011;47726;52.766;6.606;2023-03-24T15:28:57;9.60;;;2.22;;
61806;SDS011;47726;52.766;6.606;2023-03-24T15:31:25;12.02;;;2.45;;
61806;SDS011;47726;52.766;6.606;2023-03-24T15:34:01;10.25;;;2.67;;
61806;SDS011;47726;52.766;6.606;2023-03-24T15:36:32;10.85;;;2.90;;
61806;SDS011;47726;52.766;6.606;2023-03-24T15:39:09;9.02;;;2.72;;
61806;SDS011;47726;52.766;6.606;2023-03-24T15:41:42;13.43;;;2.67;;
61806;SDS011;47726;52.766;6.606;2023-03-24T15:44:08;8.48;;;2.55;;
61806;SDS011;47726;52.766;6.606;2023-03-24T15:46:41;9.18;;;2.42;;
61806;SDS011;47726;52.766;6.606;2023-03-24T15:49:13;10.65;;;2.40;;
61806;SDS011;47726;52.766;6.606;2023-03-24T15:51:44;9.50;;;2.30;;
61806;SDS011;47726;52.766;6.606;2023-03-24T15:54:19;8.05;;;2.30;;
61806;SDS011;47726;52.766;6.606;2023-03-24T15:57:00;7.70;;;2.28;;
61806;SDS011;47726;52.766;6.606;2023-03-24T15:59:49;8.57;;;2.33;;
61806;SDS011;47726;52.766;6.606;2023-03-24T16:04:57;6.05;;;2.10;;
61806;SDS011;47726;52.766;6.606;2023-03-24T16:07:27;7.68;;;2.40;;
61806;SDS011;47726;52.766;6.606;2023-03-24T16:09:57;8.90;;;2.50;;
61806;SDS011;47726;52.766;6.606;2023-03-24T16:12:36;7.93;;;2.67;;
61806;SDS011;47726;52.766;6.606;2023-03-24T16:17:30;7.75;;;2.60;;
61806;SDS011;47726;52.766;6.606;2023-03-24T16:19:56;8.13;;;2.55;;
61806;SDS011;47726;52.766;6.606;2023-03-24T16:22:22;9.35;;;2.53;;
61806;SDS011;47726;52.766;6.606;2023-03-24T16:24:48;8.73;;;2.47;;
61806;SDS011;47726;52.766;6.606;2023-03-24T16:27:13;8.27;;;2.88;;
61806;SDS011;47726;52.766;6.606;2023-03-24T16:29:40;8.82;;;2.90;;
61806;SDS011;47726;52.766;6.606;2023-03-24T16:32:07;8.98;;;2.95;;
61806;SDS011;47726;52.766;6.606;2023-03-24T16:34:33;7.88;;;2.63;;
61806;SDS011;47726;52.766;6.606;2023-03-24T16:37:00;7.38;;;2.70;;
61806;SDS011;47726;52.766;6.606;2023-03-24T16:39:27;8.45;;;2.90;;
61806;SDS011;47726;52.766;6.606;2023-03-24T16:41:53;7.80;;;2.50;;
61806;SDS011;47726;52.766;6.606;2023-03-24T16:44:19;10.73;;;2.85;;
61806;SDS011;47726;52.766;6.606;2023-03-24T16:46:46;8.98;;;2.63;;
61806;SDS011;47726;52.766;6.606;2023-03-24T16:49:14;7.03;;;2.50;;
61806;SDS011;47726;52.766;6.606;2023-03-24T16:51:41;8.63;;;2.67;;
61806;SDS011;47726;52.766;6.606;2023-03-24T16:54:07;11.07;;;3.05;;
61806;SDS011;47726;52.766;6.606;2023-03-24T16:56:33;7.38;;;2.42;;
61806;SDS011;47726;52.766;6.606;2023-03-24T16:59:00;10.05;;;2.60;;
61806;SDS011;47726;52.766;6.606;2023-03-24T17:03:58;9.48;;;2.20;;
61806;SDS011;47726;52.766;6.606;2023-03-24T17:06:26;9.50;;;2.45;;
61806;SDS011;47726;52.766;6.606;2023-03-24T17:08:54;8.45;;;2.35;;
61806;SDS011;47726;52.766;6.606;2023-03-24T17:11:28;9.30;;;2.33;;
61806;SDS011;47726;52.766;6.606;2023-03-24T17:13:56;6.15;;;2.13;;
61806;SDS011;47726;52.766;6.606;2023-03-24T17:16:36;14.35;;;2.70;;